Milwaukee, Wisconsin
Current Conditions -  °F | °C
As of 3:52 AM on Sunday 21 Dec 2014 (Local Time) from KMKE Reporting Station
Overcast Overcast  
Wind Chill: 26°   Ceiling: 3800
Heat Index: 32°   Visibility: 7mi
Dew Point: 26°   Wind: 6mph
Humidity: 79%   Direction: 180°S
Pressure: 30.2"   Gusts: NA
Location:  43.04°N, 87.91°W
Report Text: KMKE 210952Z 18005KT 7SM OVC038 00/M03 A3020 RMK AO2 SLP237 T00001033
Loading
Personal Weather Stations






























Interactive Weather Map New forecast layout! Learn more

10-Day Weather Forecast

Advertisements
Track Severe Weather on mobile